sensor_id;sensor_type;location;lat;lon;timestamp;temperature;humidity
61255;DHT22;47128;47.530;8.584;2022-09-16T00:00:14;15.90;99.90
61255;DHT22;47128;47.530;8.584;2022-09-16T00:02:40;15.90;99.90
61255;DHT22;47128;47.530;8.584;2022-09-16T00:05:07;15.90;99.90
61255;DHT22;47128;47.530;8.584;2022-09-16T00:07:33;15.90;99.90
61255;DHT22;47128;47.530;8.584;2022-09-16T00:09:58;16.00;99.90
61255;DHT22;47128;47.530;8.584;2022-09-16T00:12:24;16.00;99.90
61255;DHT22;47128;47.530;8.584;2022-09-16T00:14:53;16.00;99.90
61255;DHT22;47128;47.530;8.584;2022-09-16T00:17:20;16.00;99.90
61255;DHT22;47128;47.530;8.584;2022-09-16T00:19:46;16.00;99.90
61255;DHT22;47128;47.530;8.584;2022-09-16T00:22:12;16.00;99.90
61255;DHT22;47128;47.530;8.584;2022-09-16T00:24:37;16.00;99.90
61255;DHT22;47128;47.530;8.584;2022-09-16T00:27:06;16.00;99.90
61255;DHT22;47128;47.530;8.584;2022-09-16T00:29:34;16.00;99.90
61255;DHT22;47128;47.530;8.584;2022-09-16T00:32:01;15.90;99.90
61255;DHT22;47128;47.530;8.584;2022-09-16T00:34:27;15.90;99.90
61255;DHT22;47128;47.530;8.584;2022-09-16T00:36:52;15.80;99.90
61255;DHT22;47128;47.530;8.584;2022-09-16T00:39:18;15.70;99.90
61255;DHT22;47128;47.530;8.584;2022-09-16T00:41:43;15.70;99.90
61255;DHT22;47128;47.530;8.584;2022-09-16T00:47:17;15.70;99.90
61255;DHT22;47128;47.530;8.584;2022-09-16T00:49:45;15.60;99.90
61255;DHT22;47128;47.530;8.584;2022-09-16T00:52:11;15.60;99.90
61255;DHT22;47128;47.530;8.584;2022-09-16T00:54:38;15.70;99.90
61255;DHT22;47128;47.530;8.584;2022-09-16T00:57:07;15.60;99.90
61255;DHT22;47128;47.530;8.584;2022-09-16T00:59:38;15.70;99.90
61255;DHT22;47128;47.530;8.584;2022-09-16T01:02:08;15.70;99.90
61255;DHT22;47128;47.530;8.584;2022-09-16T01:04:41;15.70;99.90
61255;DHT22;47128;47.530;8.584;2022-09-16T01:07:08;15.70;99.90
61255;DHT22;47128;47.530;8.584;2022-09-16T01:09:35;15.70;99.90
61255;DHT22;47128;47.530;8.584;2022-09-16T01:12:01;15.70;99.90
61255;DHT22;47128;47.530;8.584;2022-09-16T01:14:27;15.70;99.90
61255;DHT22;47128;47.530;8.584;2022-09-16T01:22:53;15.70;99.90
61255;DHT22;47128;47.530;8.584;2022-09-16T01:28:31;15.70;99.90
61255;DHT22;47128;47.530;8.584;2022-09-16T01:31:22;15.70;99.90
61255;DHT22;47128;47.530;8.584;2022-09-16T01:37:00;15.70;99.90
61255;DHT22;47128;47.530;8.584;2022-09-16T01:45:22;15.60;99.90
61255;DHT22;47128;47.530;8.584;2022-09-16T01:50:35;15.50;99.90
61255;DHT22;47128;47.530;8.584;2022-09-16T01:53:38;15.50;99.90
61255;DHT22;47128;47.530;8.584;2022-09-16T01:56:07;15.60;99.90
61255;DHT22;47128;47.530;8.584;2022-09-16T01:58:53;15.60;99.90
61255;DHT22;47128;47.530;8.584;2022-09-16T02:01:34;15.70;99.90
61255;DHT22;47128;47.530;8.584;2022-09-16T02:04:05;15.60;99.90
61255;DHT22;47128;47.530;8.584;2022-09-16T02:06:33;15.60;99.90
61255;DHT22;47128;47.530;8.584;2022-09-16T02:09:04;15.70;99.90
61255;DHT22;47128;47.530;8.584;2022-09-16T02:11:32;15.70;99.90
61255;DHT22;47128;47.530;8.584;2022-09-16T02:14:08;15.70;99.90
61255;DHT22;47128;47.530;8.584;2022-09-16T02:16:39;15.70;99.90
61255;DHT22;47128;47.530;8.584;2022-09-16T02:19:12;15.70;99.90
61255;DHT22;47128;47.530;8.584;2022-09-16T02:21:40;15.60;99.90
61255;DHT22;47128;47.530;8.584;2022-09-16T02:24:09;15.50;99.90
61255;DHT22;47128;47.530;8.584;2022-09-16T02:26:41;15.60;99.90
61255;DHT22;47128;47.530;8.584;2022-09-16T02:29:15;15.60;99.90
61255;DHT22;47128;47.530;8.584;2022-09-16T02:31:43;15.60;99.90
61255;DHT22;47128;47.530;8.584;2022-09-16T02:34:15;15.50;99.90
61255;DHT22;47128;47.530;8.584;2022-09-16T02:36:46;15.60;99.90
61255;DHT22;47128;47.530;8.584;2022-09-16T02:39:16;15.60;99.90
61255;DHT22;47128;47.530;8.584;2022-09-16T02:41:44;15.70;99.90
61255;DHT22;47128;47.530;8.584;2022-09-16T02:44:10;15.70;99.90
61255;DHT22;47128;47.530;8.584;2022-09-16T02:52:34;15.60;99.90
61255;DHT22;47128;47.530;8.584;2022-09-16T02:54:59;15.50;99.90
61255;DHT22;47128;47.530;8.584;2022-09-16T02:57:26;15.50;99.90
61255;DHT22;47128;47.530;8.584;2022-09-16T02:59:52;15.40;99.90
61255;DHT22;47128;47.530;8.584;2022-09-16T03:02:19;15.40;99.90
61255;DHT22;47128;47.530;8.584;2022-09-16T03:04:45;15.40;99.90
61255;DHT22;47128;47.530;8.584;2022-09-16T03:07:11;15.50;99.90
61255;DHT22;47128;47.530;8.584;2022-09-16T03:09:41;15.40;99.90
61255;DHT22;47128;47.530;8.584;2022-09-16T03:14:58;15.30;99.90
61255;DHT22;47128;47.530;8.584;2022-09-16T03:26:04;15.10;99.90
61255;DHT22;47128;47.530;8.584;2022-09-16T03:28:36;15.10;99.90
61255;DHT22;47128;47.530;8.584;2022-09-16T03:31:10;15.20;99.90
61255;DHT22;47128;47.530;8.584;2022-09-16T03:33:46;15.20;99.90
61255;DHT22;47128;47.530;8.584;2022-09-16T03:36:17;15.10;99.90
61255;DHT22;47128;47.530;8.584;2022-09-16T03:38:45;15.20;99.90
61255;DHT22;47128;47.530;8.584;2022-09-16T03:41:12;15.10;99.90
61255;DHT22;47128;47.530;8.584;2022-09-16T03:43:38;15.10;99.90
61255;DHT22;47128;47.530;8.584;2022-09-16T03:46:09;15.00;99.90
61255;DHT22;47128;47.530;8.584;2022-09-16T03:48:35;15.10;99.90
61255;DHT22;47128;47.530;8.584;2022-09-16T03:51:01;15.10;99.90
61255;DHT22;47128;47.530;8.584;2022-09-16T03:53:26;15.10;99.90
61255;DHT22;47128;47.530;8.584;2022-09-16T03:55:52;15.10;99.90
61255;DHT22;47128;47.530;8.584;2022-09-16T03:58:18;15.00;99.90
61255;DHT22;47128;47.530;8.584;2022-09-16T04:00:48;15.00;99.90
61255;DHT22;47128;47.530;8.584;2022-09-16T04:03:15;15.00;99.90
61255;DHT22;47128;47.530;8.584;2022-09-16T04:05:41;15.00;99.90
61255;DHT22;47128;47.530;8.584;2022-09-16T04:08:07;15.00;99.90
61255;DHT22;47128;47.530;8.584;2022-09-16T04:10:33;15.00;99.90
61255;DHT22;47128;47.530;8.584;2022-09-16T04:12:59;15.00;99.90
61255;DHT22;47128;47.530;8.584;2022-09-16T04:15:24;15.00;99.90
61255;DHT22;47128;47.530;8.584;2022-09-16T04:17:50;15.00;99.90
61255;DHT22;47128;47.530;8.584;2022-09-16T04:20:16;15.00;99.90
61255;DHT22;47128;47.530;8.584;2022-09-16T04:22:42;15.00;99.90
61255;DHT22;47128;47.530;8.584;2022-09-16T04:25:08;15.00;99.90
61255;DHT22;47128;47.530;8.584;2022-09-16T04:27:34;15.00;99.90
61255;DHT22;47128;47.530;8.584;2022-09-16T04:30:00;15.00;99.90
61255;DHT22;47128;47.530;8.584;2022-09-16T04:32:25;15.00;99.90
61255;DHT22;47128;47.530;8.584;2022-09-16T04:34:51;15.00;99.90
61255;DHT22;47128;47.530;8.584;2022-09-16T04:37:17;14.90;99.90
61255;DHT22;47128;47.530;8.584;2022-09-16T04:39:42;14.90;99.90
61255;DHT22;47128;47.530;8.584;2022-09-16T04:42:08;14.80;99.90
61255;DHT22;47128;47.530;8.584;2022-09-16T04:44:36;14.80;99.90
61255;DHT22;47128;47.530;8.584;2022-09-16T04:47:02;14.80;99.90
61255;DHT22;47128;47.530;8.584;2022-09-16T04:49:27;14.80;99.90
61255;DHT22;47128;47.530;8.584;2022-09-16T04:51:53;14.80;99.90
61255;DHT22;47128;47.530;8.584;2022-09-16T04:54:19;14.80;99.90
61255;DHT22;47128;47.530;8.584;2022-09-16T04:56:44;14.70;99.90
61255;DHT22;47128;47.530;8.584;2022-09-16T04:59:11;14.80;99.90
61255;DHT22;47128;47.530;8.584;2022-09-16T05:01:38;14.80;99.90
61255;DHT22;47128;47.530;8.584;2022-09-16T05:04:06;14.80;99.90
61255;DHT22;47128;47.530;8.584;2022-09-16T05:06:41;14.80;99.90
61255;DHT22;47128;47.530;8.584;2022-09-16T05:09:09;14.90;99.90
61255;DHT22;47128;47.530;8.584;2022-09-16T05:11:37;14.90;99.90
61255;DHT22;47128;47.530;8.584;2022-09-16T05:14:05;15.00;99.90
61255;DHT22;47128;47.530;8.584;2022-09-16T05:16:33;15.00;99.90
61255;DHT22;47128;47.530;8.584;2022-09-16T05:19:00;15.00;99.90
61255;DHT22;47128;47.530;8.584;2022-09-16T05:21:28;15.00;99.90
61255;DHT22;47128;47.530;8.584;2022-09-16T05:23:54;15.00;99.90
61255;DHT22;47128;47.530;8.584;2022-09-16T05:26:22;14.90;99.90
61255;DHT22;47128;47.530;8.584;2022-09-16T05:28:52;14.90;99.90
61255;DHT22;47128;47.530;8.584;2022-09-16T05:31:20;14.90;99.90
61255;DHT22;47128;47.530;8.584;2022-09-16T05:33:58;14.90;99.90
61255;DHT22;47128;47.530;8.584;2022-09-16T05:36:26;14.90;99.90
61255;DHT22;47128;47.530;8.584;2022-09-16T05:38:52;15.00;99.90
61255;DHT22;47128;47.530;8.584;2022-09-16T05:41:18;15.00;99.90
61255;DHT22;47128;47.530;8.584;2022-09-16T05:43:43;15.10;99.90
61255;DHT22;47128;47.530;8.584;2022-09-16T05:46:13;15.10;99.90
61255;DHT22;47128;47.530;8.584;2022-09-16T05:48:41;15.10;99.90
61255;DHT22;47128;47.530;8.584;2022-09-16T05:51:08;15.10;99.90
61255;DHT22;47128;47.530;8.584;2022-09-16T05:53:34;15.10;99.90
61255;DHT22;47128;47.530;8.584;2022-09-16T05:56:02;15.10;99.90
61255;DHT22;47128;47.530;8.584;2022-09-16T05:58:30;15.10;99.90
61255;DHT22;47128;47.530;8.584;2022-09-16T06:01:03;15.00;99.90
61255;DHT22;47128;47.530;8.584;2022-09-16T06:03:31;15.00;99.90
61255;DHT22;47128;47.530;8.584;2022-09-16T06:06:02;15.00;99.90
61255;DHT22;47128;47.530;8.584;2022-09-16T06:08:29;15.10;99.90
61255;DHT22;47128;47.530;8.584;2022-09-16T06:10:55;15.10;99.90
61255;DHT22;47128;47.530;8.584;2022-09-16T06:13:23;15.20;99.90
61255;DHT22;47128;47.530;8.584;2022-09-16T06:15:50;15.20;99.90
61255;DHT22;47128;47.530;8.584;2022-09-16T06:18:17;15.30;99.90
61255;DHT22;47128;47.530;8.584;2022-09-16T06:20:47;15.30;99.90
61255;DHT22;47128;47.530;8.584;2022-09-16T06:23:13;15.30;99.90
61255;DHT22;47128;47.530;8.584;2022-09-16T06:25:41;15.40;99.90
61255;DHT22;47128;47.530;8.584;2022-09-16T06:28:07;15.40;99.90
61255;DHT22;47128;47.530;8.584;2022-09-16T06:30:34;15.50;99.90
61255;DHT22;47128;47.530;8.584;2022-09-16T06:33:02;15.50;99.90
61255;DHT22;47128;47.530;8.584;2022-09-16T06:35:28;15.50;99.90
61255;DHT22;47128;47.530;8.584;2022-09-16T06:37:54;15.50;99.90
61255;DHT22;47128;47.530;8.584;2022-09-16T06:40:20;15.60;99.90
61255;DHT22;47128;47.530;8.584;2022-09-16T06:42:46;15.60;99.90
61255;DHT22;47128;47.530;8.584;2022-09-16T06:45:15;15.70;99.90
61255;DHT22;47128;47.530;8.584;2022-09-16T06:47:41;15.70;99.90
61255;DHT22;47128;47.530;8.584;2022-09-16T06:50:08;15.80;99.90
61255;DHT22;47128;47.530;8.584;2022-09-16T06:52:34;15.80;99.90
61255;DHT22;47128;47.530;8.584;2022-09-16T06:55:00;15.80;99.90
61255;DHT22;47128;47.530;8.584;2022-09-16T06:57:25;15.80;99.90
61255;DHT22;47128;47.530;8.584;2022-09-16T06:59:57;15.90;99.90
61255;DHT22;47128;47.530;8.584;2022-09-16T07:02:25;15.90;99.90
61255;DHT22;47128;47.530;8.584;2022-09-16T07:04:52;16.00;99.90
61255;DHT22;47128;47.530;8.584;2022-09-16T07:07:28;16.00;99.90
61255;DHT22;47128;47.530;8.584;2022-09-16T07:09:53;16.10;99.90
61255;DHT22;47128;47.530;8.584;2022-09-16T07:12:19;16.20;99.90
61255;DHT22;47128;47.530;8.584;2022-09-16T07:14:45;16.20;99.90
61255;DHT22;47128;47.530;8.584;2022-09-16T07:17:10;16.30;99.90
61255;DHT22;47128;47.530;8.584;2022-09-16T07:19:36;16.40;99.90
61255;DHT22;47128;47.530;8.584;2022-09-16T07:22:02;16.50;99.90
61255;DHT22;47128;47.530;8.584;2022-09-16T07:24:29;16.50;99.90
61255;DHT22;47128;47.530;8.584;2022-09-16T07:26:57;16.50;99.90
61255;DHT22;47128;47.530;8.584;2022-09-16T07:29:23;16.60;99.90
61255;DHT22;47128;47.530;8.584;2022-09-16T07:31:51;16.70;99.90
61255;DHT22;47128;47.530;8.584;2022-09-16T07:34:17;16.80;99.90
61255;DHT22;47128;47.530;8.584;2022-09-16T07:36:46;16.80;99.90
61255;DHT22;47128;47.530;8.584;2022-09-16T07:39:14;16.80;99.90
61255;DHT22;47128;47.530;8.584;2022-09-16T07:41:42;16.80;99.90
61255;DHT22;47128;47.530;8.584;2022-09-16T07:44:11;16.70;99.90
61255;DHT22;47128;47.530;8.584;2022-09-16T07:46:42;16.70;99.90
61255;DHT22;47128;47.530;8.584;2022-09-16T07:49:11;16.70;99.90
61255;DHT22;47128;47.530;8.584;2022-09-16T07:51:37;16.60;99.90
61255;DHT22;47128;47.530;8.584;2022-09-16T07:54:05;16.60;99.90
61255;DHT22;47128;47.530;8.584;2022-09-16T07:56:35;16.70;99.90
61255;DHT22;47128;47.530;8.584;2022-09-16T07:59:02;16.70;99.90
61255;DHT22;47128;47.530;8.584;2022-09-16T08:01:27;16.70;99.90
61255;DHT22;47128;47.530;8.584;2022-09-16T08:03:55;16.80;99.90
61255;DHT22;47128;47.530;8.584;2022-09-16T08:06:24;16.80;99.90
61255;DHT22;47128;47.530;8.584;2022-09-16T08:09:03;16.90;99.90
61255;DHT22;47128;47.530;8.584;2022-09-16T08:11:30;16.90;99.90
61255;DHT22;47128;47.530;8.584;2022-09-16T08:13:58;16.90;99.90
61255;DHT22;47128;47.530;8.584;2022-09-16T08:16:25;17.00;99.90
61255;DHT22;47128;47.530;8.584;2022-09-16T08:18:53;17.00;99.90
61255;DHT22;47128;47.530;8.584;2022-09-16T08:21:25;17.10;99.90
61255;DHT22;47128;47.530;8.584;2022-09-16T08:24:05;17.00;99.90
61255;DHT22;47128;47.530;8.584;2022-09-16T08:26:30;17.00;99.90
61255;DHT22;47128;47.530;8.584;2022-09-16T08:28:56;17.00;99.90
61255;DHT22;47128;47.530;8.584;2022-09-16T08:31:25;17.00;99.90
61255;DHT22;47128;47.530;8.584;2022-09-16T08:34:03;17.00;99.90
61255;DHT22;47128;47.530;8.584;2022-09-16T08:36:36;17.00;99.90
61255;DHT22;47128;47.530;8.584;2022-09-16T08:39:03;17.20;99.90
61255;DHT22;47128;47.530;8.584;2022-09-16T08:44:40;17.30;99.90
61255;DHT22;47128;47.530;8.584;2022-09-16T08:50:02;17.40;99.90
61255;DHT22;47128;47.530;8.584;2022-09-16T08:52:41;17.50;99.90
61255;DHT22;47128;47.530;8.584;2022-09-16T08:55:24;17.60;99.90
61255;DHT22;47128;47.530;8.584;2022-09-16T08:58:21;17.60;99.90
61255;DHT22;47128;47.530;8.584;2022-09-16T09:01:01;17.70;99.90
61255;DHT22;47128;47.530;8.584;2022-09-16T09:03:40;17.90;99.90
61255;DHT22;47128;47.530;8.584;2022-09-16T09:06:38;18.10;99.90
61255;DHT22;47128;47.530;8.584;2022-09-16T09:12:23;18.90;99.90
61255;DHT22;47128;47.530;8.584;2022-09-16T09:15:12;19.00;99.90
61255;DHT22;47128;47.530;8.584;2022-09-16T09:26:19;18.30;99.90
61255;DHT22;47128;47.530;8.584;2022-09-16T09:37:22;18.20;99.90
61255;DHT22;47128;47.530;8.584;2022-09-16T09:42:33;18.10;99.90
61255;DHT22;47128;47.530;8.584;2022-09-16T09:45:46;18.00;99.90
61255;DHT22;47128;47.530;8.584;2022-09-16T09:50:49;18.30;99.90
61255;DHT22;47128;47.530;8.584;2022-09-16T09:53:36;18.20;99.90
61255;DHT22;47128;47.530;8.584;2022-09-16T09:56:22;18.20;99.90
61255;DHT22;47128;47.530;8.584;2022-09-16T10:01:18;18.00;99.90
61255;DHT22;47128;47.530;8.584;2022-09-16T10:03:46;18.00;99.90
61255;DHT22;47128;47.530;8.584;2022-09-16T10:06:13;18.00;99.90
61255;DHT22;47128;47.530;8.584;2022-09-16T10:08:49;17.80;99.40
61255;DHT22;47128;47.530;8.584;2022-09-16T10:11:22;17.80;99.90
61255;DHT22;47128;47.530;8.584;2022-09-16T10:13:57;17.70;99.90
61255;DHT22;47128;47.530;8.584;2022-09-16T10:16:33;17.70;99.90
61255;DHT22;47128;47.530;8.584;2022-09-16T10:19:30;17.70;99.90
61255;DHT22;47128;47.530;8.584;2022-09-16T10:22:32;17.80;99.90
61255;DHT22;47128;47.530;8.584;2022-09-16T10:25:01;17.90;99.90
61255;DHT22;47128;47.530;8.584;2022-09-16T10:27:31;17.90;99.90
61255;DHT22;47128;47.530;8.584;2022-09-16T10:30:15;17.90;99.90
61255;DHT22;47128;47.530;8.584;2022-09-16T10:33:12;17.90;99.90
61255;DHT22;47128;47.530;8.584;2022-09-16T10:36:10;17.70;99.90
61255;DHT22;47128;47.530;8.584;2022-09-16T10:38:52;17.60;99.90
61255;DHT22;47128;47.530;8.584;2022-09-16T10:41:28;17.60;99.90
61255;DHT22;47128;47.530;8.584;2022-09-16T10:44:14;17.70;99.90
61255;DHT22;47128;47.530;8.584;2022-09-16T10:47:04;17.70;99.90
61255;DHT22;47128;47.530;8.584;2022-09-16T10:49:54;17.70;99.90
61255;DHT22;47128;47.530;8.584;2022-09-16T10:52:30;17.70;99.80
61255;DHT22;47128;47.530;8.584;2022-09-16T10:54:56;17.60;99.10
61255;DHT22;47128;47.530;8.584;2022-09-16T10:57:31;17.70;98.80
61255;DHT22;47128;47.530;8.584;2022-09-16T11:06:04;17.70;98.10
61255;DHT22;47128;47.530;8.584;2022-09-16T11:08:59;17.80;98.60
61255;DHT22;47128;47.530;8.584;2022-09-16T11:17:54;18.10;98.70
61255;DHT22;47128;47.530;8.584;2022-09-16T11:20:24;18.20;98.70
61255;DHT22;47128;47.530;8.584;2022-09-16T11:34:35;18.70;97.60
61255;DHT22;47128;47.530;8.584;2022-09-16T11:37:16;18.90;96.70
61255;DHT22;47128;47.530;8.584;2022-09-16T11:45:58;19.60;94.70
61255;DHT22;47128;47.530;8.584;2022-09-16T11:57:27;18.90;95.50
61255;DHT22;47128;47.530;8.584;2022-09-16T12:05:26;18.60;95.40
61255;DHT22;47128;47.530;8.584;2022-09-16T12:13:27;18.50;95.50
61255;DHT22;47128;47.530;8.584;2022-09-16T12:16:04;18.50;94.90
61255;DHT22;47128;47.530;8.584;2022-09-16T12:18:42;18.70;95.10
61255;DHT22;47128;47.530;8.584;2022-09-16T12:21:18;18.80;95.10
61255;DHT22;47128;47.530;8.584;2022-09-16T12:27:09;18.90;94.70
61255;DHT22;47128;47.530;8.584;2022-09-16T12:29:50;18.90;95.20
61255;DHT22;47128;47.530;8.584;2022-09-16T12:35:25;19.00;94.80
61255;DHT22;47128;47.530;8.584;2022-09-16T12:37:53;19.10;95.00
61255;DHT22;47128;47.530;8.584;2022-09-16T12:40:23;19.20;93.80
61255;DHT22;47128;47.530;8.584;2022-09-16T12:51:54;19.30;94.20
61255;DHT22;47128;47.530;8.584;2022-09-16T13:00:39;19.60;92.80
61255;DHT22;47128;47.530;8.584;2022-09-16T13:03:14;19.50;92.20
61255;DHT22;47128;47.530;8.584;2022-09-16T13:05:52;19.40;92.30
61255;DHT22;47128;47.530;8.584;2022-09-16T13:08:25;19.20;92.40
61255;DHT22;47128;47.530;8.584;2022-09-16T13:13:34;19.30;92.60
61255;DHT22;47128;47.530;8.584;2022-09-16T13:25:10;19.40;92.20
61255;DHT22;47128;47.530;8.584;2022-09-16T13:28:21;19.30;90.70
61255;DHT22;47128;47.530;8.584;2022-09-16T13:30:47;19.30;90.00
61255;DHT22;47128;47.530;8.584;2022-09-16T13:33:24;19.20;90.80
61255;DHT22;47128;47.530;8.584;2022-09-16T13:36:11;19.10;90.20
61255;DHT22;47128;47.530;8.584;2022-09-16T13:38:43;18.90;90.20
61255;DHT22;47128;47.530;8.584;2022-09-16T13:41:11;18.70;90.00
61255;DHT22;47128;47.530;8.584;2022-09-16T13:46:09;18.80;90.30
61255;DHT22;47128;47.530;8.584;2022-09-16T13:48:45;18.70;90.20
61255;DHT22;47128;47.530;8.584;2022-09-16T13:51:18;18.70;90.30
61255;DHT22;47128;47.530;8.584;2022-09-16T13:53:52;18.70;90.20
61255;DHT22;47128;47.530;8.584;2022-09-16T14:02:41;18.30;90.90
61255;DHT22;47128;47.530;8.584;2022-09-16T14:11:06;18.20;91.10
61255;DHT22;47128;47.530;8.584;2022-09-16T14:14:01;18.30;90.70
61255;DHT22;47128;47.530;8.584;2022-09-16T14:16:27;18.70;90.30
61255;DHT22;47128;47.530;8.584;2022-09-16T14:18:59;18.70;89.20
61255;DHT22;47128;47.530;8.584;2022-09-16T14:21:29;18.60;89.50
61255;DHT22;47128;47.530;8.584;2022-09-16T14:24:17;18.50;90.00
61255;DHT22;47128;47.530;8.584;2022-09-16T14:26:55;18.40;90.10
61255;DHT22;47128;47.530;8.584;2022-09-16T14:29:23;18.40;89.20
61255;DHT22;47128;47.530;8.584;2022-09-16T14:31:53;18.40;89.10
61255;DHT22;47128;47.530;8.584;2022-09-16T14:34:26;18.50;89.40
61255;DHT22;47128;47.530;8.584;2022-09-16T14:36:52;18.60;89.40
61255;DHT22;47128;47.530;8.584;2022-09-16T14:39:20;18.70;90.30
61255;DHT22;47128;47.530;8.584;2022-09-16T14:41:57;18.60;89.30
61255;DHT22;47128;47.530;8.584;2022-09-16T14:44:32;18.60;89.90
61255;DHT22;47128;47.530;8.584;2022-09-16T14:49:44;18.70;90.00
61255;DHT22;47128;47.530;8.584;2022-09-16T14:52:24;18.70;90.10
61255;DHT22;47128;47.530;8.584;2022-09-16T14:54:51;18.70;89.30
61255;DHT22;47128;47.530;8.584;2022-09-16T14:57:24;18.70;88.90
61255;DHT22;47128;47.530;8.584;2022-09-16T15:00:16;18.60;89.40
61255;DHT22;47128;47.530;8.584;2022-09-16T15:02:45;18.60;89.90
61255;DHT22;47128;47.530;8.584;2022-09-16T15:08:31;18.50;90.00
61255;DHT22;47128;47.530;8.584;2022-09-16T15:11:04;18.40;90.10
61255;DHT22;47128;47.530;8.584;2022-09-16T15:13:38;18.20;89.60
61255;DHT22;47128;47.530;8.584;2022-09-16T15:16:08;18.30;90.40
61255;DHT22;47128;47.530;8.584;2022-09-16T15:18:43;18.30;90.70
61255;DHT22;47128;47.530;8.584;2022-09-16T15:21:23;18.20;90.80
61255;DHT22;47128;47.530;8.584;2022-09-16T15:23:58;18.30;90.50
61255;DHT22;47128;47.530;8.584;2022-09-16T15:29:04;18.30;90.10
61255;DHT22;47128;47.530;8.584;2022-09-16T15:31:39;18.20;90.20
61255;DHT22;47128;47.530;8.584;2022-09-16T15:34:24;18.00;90.00
61255;DHT22;47128;47.530;8.584;2022-09-16T15:36:57;18.00;90.50
61255;DHT22;47128;47.530;8.584;2022-09-16T15:39:31;17.90;90.00
61255;DHT22;47128;47.530;8.584;2022-09-16T15:42:19;17.80;90.40
61255;DHT22;47128;47.530;8.584;2022-09-16T15:47:22;17.70;90.80
61255;DHT22;47128;47.530;8.584;2022-09-16T15:49:54;17.70;91.00
61255;DHT22;47128;47.530;8.584;2022-09-16T15:52:21;17.70;90.80
61255;DHT22;47128;47.530;8.584;2022-09-16T15:54:55;17.70;91.10
61255;DHT22;47128;47.530;8.584;2022-09-16T15:57:43;17.60;91.30
61255;DHT22;47128;47.530;8.584;2022-09-16T16:00:11;17.60;91.30
61255;DHT22;47128;47.530;8.584;2022-09-16T16:05:17;17.50;91.70
61255;DHT22;47128;47.530;8.584;2022-09-16T16:07:49;17.50;91.50
61255;DHT22;47128;47.530;8.584;2022-09-16T16:10:17;17.40;91.70
61255;DHT22;47128;47.530;8.584;2022-09-16T16:12:46;17.30;91.50
61255;DHT22;47128;47.530;8.584;2022-09-16T16:15:23;17.10;91.60
61255;DHT22;47128;47.530;8.584;2022-09-16T16:20:19;16.90;91.80
61255;DHT22;47128;47.530;8.584;2022-09-16T16:22:45;16.80;92.20
61255;DHT22;47128;47.530;8.584;2022-09-16T16:25:14;16.80;92.20
61255;DHT22;47128;47.530;8.584;2022-09-16T16:27:51;16.60;92.10
61255;DHT22;47128;47.530;8.584;2022-09-16T16:30:23;16.50;92.40
61255;DHT22;47128;47.530;8.584;2022-09-16T16:32:56;16.40;92.80
61255;DHT22;47128;47.530;8.584;2022-09-16T16:35:25;16.40;93.00
61255;DHT22;47128;47.530;8.584;2022-09-16T16:38:13;16.30;92.50
61255;DHT22;47128;47.530;8.584;2022-09-16T16:40:50;16.30;92.40
61255;DHT22;47128;47.530;8.584;2022-09-16T16:43:23;16.20;91.70
61255;DHT22;47128;47.530;8.584;2022-09-16T16:55:40;16.20;92.30
61255;DHT22;47128;47.530;8.584;2022-09-16T16:58:09;16.20;92.30
61255;DHT22;47128;47.530;8.584;2022-09-16T17:00:51;16.20;92.50
61255;DHT22;47128;47.530;8.584;2022-09-16T17:03:20;16.10;92.30
61255;DHT22;47128;47.530;8.584;2022-09-16T17:05:49;16.10;92.50
61255;DHT22;47128;47.530;8.584;2022-09-16T17:08:15;16.00;92.40
61255;DHT22;47128;47.530;8.584;2022-09-16T17:10:41;15.90;92.80
61255;DHT22;47128;47.530;8.584;2022-09-16T17:13:16;15.90;92.40
61255;DHT22;47128;47.530;8.584;2022-09-16T17:15:52;15.90;92.60
61255;DHT22;47128;47.530;8.584;2022-09-16T17:18:39;15.80;92.50
61255;DHT22;47128;47.530;8.584;2022-09-16T17:21:11;15.80;92.60
61255;DHT22;47128;47.530;8.584;2022-09-16T17:23:40;15.80;93.10
61255;DHT22;47128;47.530;8.584;2022-09-16T17:26:15;15.70;93.80
61255;DHT22;47128;47.530;8.584;2022-09-16T17:28:57;15.60;93.80
61255;DHT22;47128;47.530;8.584;2022-09-16T17:31:37;15.50;94.10
61255;DHT22;47128;47.530;8.584;2022-09-16T17:43:26;15.20;96.80
61255;DHT22;47128;47.530;8.584;2022-09-16T17:46:25;15.10;96.70
61255;DHT22;47128;47.530;8.584;2022-09-16T17:49:25;14.90;97.10
61255;DHT22;47128;47.530;8.584;2022-09-16T17:53:07;14.90;97.50
61255;DHT22;47128;47.530;8.584;2022-09-16T18:22:20;14.50;99.90
61255;DHT22;47128;47.530;8.584;2022-09-16T18:24:46;14.50;99.90
61255;DHT22;47128;47.530;8.584;2022-09-16T18:27:14;14.40;99.90
61255;DHT22;47128;47.530;8.584;2022-09-16T18:30:08;14.40;99.90
61255;DHT22;47128;47.530;8.584;2022-09-16T18:32:45;14.40;99.90
61255;DHT22;47128;47.530;8.584;2022-09-16T18:35:14;14.40;99.90
61255;DHT22;47128;47.530;8.584;2022-09-16T18:38:02;14.30;99.90
61255;DHT22;47128;47.530;8.584;2022-09-16T18:40:31;14.30;99.90
61255;DHT22;47128;47.530;8.584;2022-09-16T18:45:25;14.30;99.90
61255;DHT22;47128;47.530;8.584;2022-09-16T18:47:52;14.20;99.90
61255;DHT22;47128;47.530;8.584;2022-09-16T18:50:19;14.20;99.90
61255;DHT22;47128;47.530;8.584;2022-09-16T18:52:50;14.10;99.90
61255;DHT22;47128;47.530;8.584;2022-09-16T18:55:16;14.10;99.90
61255;DHT22;47128;47.530;8.584;2022-09-16T18:57:44;14.10;99.90
61255;DHT22;47128;47.530;8.584;2022-09-16T19:00:19;14.00;99.90
61255;DHT22;47128;47.530;8.584;2022-09-16T19:02:50;14.10;99.90
61255;DHT22;47128;47.530;8.584;2022-09-16T19:05:16;14.20;99.90
61255;DHT22;47128;47.530;8.584;2022-09-16T19:07:50;14.10;99.90
61255;DHT22;47128;47.530;8.584;2022-09-16T19:10:24;14.10;99.90
61255;DHT22;47128;47.530;8.584;2022-09-16T19:12:57;14.10;99.90
61255;DHT22;47128;47.530;8.584;2022-09-16T19:15:38;14.10;99.90
61255;DHT22;47128;47.530;8.584;2022-09-16T19:18:07;14.00;99.90
61255;DHT22;47128;47.530;8.584;2022-09-16T19:20:43;14.10;99.90
61255;DHT22;47128;47.530;8.584;2022-09-16T19:23:18;14.10;99.90
61255;DHT22;47128;47.530;8.584;2022-09-16T19:28:28;14.00;99.90
61255;DHT22;47128;47.530;8.584;2022-09-16T19:31:04;13.90;99.90
61255;DHT22;47128;47.530;8.584;2022-09-16T19:33:34;13.90;99.90
61255;DHT22;47128;47.530;8.584;2022-09-16T19:35:59;14.00;99.90
61255;DHT22;47128;47.530;8.584;2022-09-16T19:38:27;14.00;99.90
61255;DHT22;47128;47.530;8.584;2022-09-16T19:41:03;14.00;99.90
61255;DHT22;47128;47.530;8.584;2022-09-16T19:43:54;13.90;99.90
61255;DHT22;47128;47.530;8.584;2022-09-16T19:46:38;13.90;99.90
61255;DHT22;47128;47.530;8.584;2022-09-16T19:49:08;13.90;99.90
61255;DHT22;47128;47.530;8.584;2022-09-16T19:51:34;13.80;99.90
61255;DHT22;47128;47.530;8.584;2022-09-16T19:54:00;13.80;99.90
61255;DHT22;47128;47.530;8.584;2022-09-16T19:56:30;13.80;99.90
61255;DHT22;47128;47.530;8.584;2022-09-16T19:59:01;13.80;99.90